createdAt,value
2017-08-26T00:01:42.318Z,6.10
2017-08-26T00:04:39.941Z,5.77
2017-08-26T00:07:38.483Z,4.87
2017-08-26T00:10:42.278Z,5.00
2017-08-26T00:13:39.893Z,5.73
2017-08-26T00:16:43.643Z,5.00
2017-08-26T00:19:41.079Z,5.20
2017-08-26T00:22:38.736Z,5.20
2017-08-26T00:25:40.507Z,5.50
2017-08-26T00:28:38.086Z,5.03
2017-08-26T00:31:41.808Z,6.73
2017-08-26T00:34:39.435Z,4.10
2017-08-26T00:37:44.227Z,4.13
2017-08-26T00:40:42.720Z,5.73
2017-08-26T00:43:41.267Z,5.23
2017-08-26T00:46:39.770Z,5.30
2017-08-26T00:49:43.258Z,7.50
2017-08-26T00:52:40.875Z,7.97
2017-08-26T00:55:44.666Z,7.73
2017-08-26T00:58:43.363Z,6.20
2017-08-26T01:01:47.087Z,5.53
2017-08-26T01:04:44.823Z,7.23
2017-08-26T01:07:47.572Z,8.40
2017-08-26T01:10:58.336Z,6.30
2017-08-26T01:13:55.957Z,8.23
2017-08-26T01:16:53.608Z,7.70
2017-08-26T01:19:51.065Z,8.07
2017-08-26T01:22:49.835Z,6.73
2017-08-26T01:25:53.607Z,6.30
2017-08-26T01:28:51.259Z,7.03
2017-08-26T01:31:49.802Z,5.70
2017-08-26T01:34:47.504Z,8.27
2017-08-26T01:37:48.037Z,7.33
2017-08-26T01:40:45.508Z,7.27
2017-08-26T01:43:43.118Z,7.07
2017-08-26T01:46:44.520Z,7.00
2017-08-26T01:49:42.958Z,6.23
2017-08-26T01:52:41.448Z,6.63
2017-08-26T01:55:40.790Z,9.10
2017-08-26T01:58:40.699Z,7.43
2017-08-26T02:01:42.342Z,6.93
2017-08-26T02:04:41.108Z,6.87
2017-08-26T02:07:46.921Z,7.50
2017-08-26T02:10:51.598Z,7.50
2017-08-26T02:13:54.940Z,6.70
2017-08-26T02:16:52.535Z,7.27
2017-08-26T02:19:51.218Z,7.57
2017-08-26T02:22:48.811Z,7.20
2017-08-26T02:25:47.262Z,5.80
2017-08-26T02:28:44.967Z,6.63
2017-08-26T02:31:42.436Z,7.00
2017-08-26T02:34:40.081Z,6.10
2017-08-26T02:37:43.503Z,6.07
2017-08-26T02:40:41.056Z,6.43
2017-08-26T02:43:38.910Z,6.83
2017-08-26T02:46:36.387Z,6.67
2017-08-26T02:49:41.875Z,6.83
2017-08-26T02:52:39.555Z,6.03
2017-08-26T02:55:43.368Z,5.10
2017-08-26T02:58:41.347Z,5.53
2017-08-26T03:01:43.098Z,5.20
2017-08-26T03:04:41.197Z,5.00
2017-08-26T03:07:40.022Z,5.83
2017-08-26T03:10:43.621Z,5.20
2017-08-26T03:13:45.466Z,6.43
2017-08-26T03:16:45.950Z,6.80
2017-08-26T03:19:43.617Z,6.30
2017-08-26T03:22:44.547Z,7.33
2017-08-26T03:25:42.362Z,8.07
2017-08-26T03:28:46.465Z,5.47
2017-08-26T03:31:45.922Z,5.17
2017-08-26T03:34:43.536Z,5.63
2017-08-26T03:37:41.254Z,5.47
2017-08-26T03:40:40.034Z,4.40
2017-08-26T03:43:43.752Z,4.70
2017-08-26T03:46:41.267Z,4.53
2017-08-26T03:49:39.940Z,4.63
2017-08-26T03:52:45.718Z,4.83
2017-08-26T03:55:49.253Z,7.47
2017-08-26T03:58:49.746Z,5.50
2017-08-26T04:01:48.171Z,6.10
2017-08-26T04:04:47.090Z,5.10
2017-08-26T04:07:45.763Z,8.47
2017-08-26T04:10:43.429Z,6.47
2017-08-26T04:13:41.174Z,6.03
2017-08-26T04:16:45.107Z,5.57
2017-08-26T04:19:45.920Z,5.90
2017-08-26T04:22:44.542Z,5.20
2017-08-26T04:25:42.232Z,5.40
2017-08-26T04:28:45.967Z,5.37
2017-08-26T04:31:43.669Z,5.50
2017-08-26T04:34:41.426Z,5.43
2017-08-26T04:37:45.275Z,5.93
2017-08-26T04:40:46.082Z,6.33
2017-08-26T04:43:43.820Z,6.07
2017-08-26T04:46:46.335Z,5.70
2017-08-26T04:49:44.071Z,5.67
2017-08-26T04:52:42.856Z,4.00
2017-08-26T04:55:40.565Z,4.73
2017-08-26T04:58:38.204Z,5.17
2017-08-26T05:01:35.796Z,5.40
2017-08-26T05:04:33.504Z,6.40
2017-08-26T05:07:30.855Z,5.00
2017-08-26T05:10:28.545Z,5.23
2017-08-26T05:13:26.018Z,7.10
2017-08-26T05:16:23.610Z,6.17
2017-08-26T05:19:21.236Z,5.90
2017-08-26T05:22:18.867Z,5.10
2017-08-26T05:25:16.697Z,6.40
2017-08-26T05:28:14.192Z,5.07
2017-08-26T05:31:11.598Z,5.27
2017-08-26T05:34:09.195Z,5.17
2017-08-26T05:37:06.672Z,5.70
2017-08-26T05:40:04.279Z,5.90
2017-08-26T05:43:01.987Z,5.63
2017-08-26T05:45:59.641Z,5.23
2017-08-26T05:48:57.208Z,6.30
2017-08-26T05:51:55.007Z,6.00
2017-08-26T05:54:52.417Z,5.63
2017-08-26T05:57:50.319Z,7.77
2017-08-26T06:00:48.002Z,7.80
2017-08-26T06:03:45.621Z,7.43
2017-08-26T06:06:43.196Z,6.27
2017-08-26T06:09:40.567Z,6.63
2017-08-26T06:12:38.191Z,6.20
2017-08-26T06:15:35.787Z,6.63
2017-08-26T06:18:33.427Z,6.67
2017-08-26T06:21:31.246Z,10.03
2017-08-26T06:24:29.116Z,8.53
2017-08-26T06:27:27.646Z,7.80
2017-08-26T06:30:31.550Z,6.90
2017-08-26T06:33:29.178Z,7.60
2017-08-26T06:36:27.139Z,7.73
2017-08-26T06:39:28.176Z,7.37
2017-08-26T06:42:25.890Z,7.40
2017-08-26T06:45:29.602Z,6.77
2017-08-26T06:48:28.239Z,6.20
2017-08-26T06:51:28.111Z,6.60
2017-08-26T06:54:26.109Z,7.73
2017-08-26T06:57:29.978Z,8.90
2017-08-26T07:00:39.719Z,7.40
2017-08-26T07:03:49.666Z,9.60
2017-08-26T07:06:50.475Z,7.40
2017-08-26T07:09:50.446Z,10.63
2017-08-26T07:12:52.259Z,7.37
2017-08-26T07:15:50.766Z,7.33
2017-08-26T07:18:48.510Z,7.67
2017-08-26T07:21:49.034Z,7.10
2017-08-26T07:24:47.932Z,8.70
2017-08-26T07:27:45.550Z,7.23
2017-08-26T07:30:43.061Z,7.67
2017-08-26T07:33:40.513Z,8.77
2017-08-26T07:36:45.939Z,9.30
2017-08-26T07:39:43.478Z,7.10
2017-08-26T07:42:54.108Z,9.57
2017-08-26T07:45:52.607Z,14.77
2017-08-26T07:48:52.221Z,8.43
2017-08-26T07:51:49.816Z,8.40
2017-08-26T07:54:47.494Z,12.13
2017-08-26T07:57:45.312Z,9.83
2017-08-26T08:00:42.956Z,14.07
2017-08-26T08:03:40.527Z,10.60
2017-08-26T08:06:38.217Z,14.50
2017-08-26T08:09:38.840Z,8.17
2017-08-26T08:12:36.431Z,6.93
2017-08-26T08:15:45.056Z,11.40
2017-08-26T08:18:42.515Z,10.87
2017-08-26T08:21:40.135Z,10.10
2017-08-26T08:24:38.007Z,9.93
2017-08-26T08:27:35.956Z,8.00
2017-08-26T08:30:33.806Z,11.10
2017-08-26T08:33:31.420Z,10.03
2017-08-26T08:36:28.979Z,11.27
2017-08-26T08:39:26.822Z,7.90
2017-08-26T08:42:26.490Z,7.07
2017-08-26T08:45:24.177Z,8.30
2017-08-26T08:48:21.730Z,6.93
2017-08-26T08:51:19.480Z,7.00
2017-08-26T08:54:22.666Z,9.03
2017-08-26T08:57:23.251Z,6.73
2017-08-26T09:00:21.022Z,6.77
2017-08-26T09:03:18.624Z,8.90
2017-08-26T09:06:16.079Z,16.67
2017-08-26T09:09:13.717Z,14.10
2017-08-26T09:12:11.270Z,8.80
2017-08-26T09:15:08.606Z,9.33
2017-08-26T09:18:06.079Z,7.70
2017-08-26T09:21:03.611Z,6.07
2017-08-26T09:24:01.226Z,10.93
2017-08-26T09:26:58.882Z,12.20
2017-08-26T09:29:56.485Z,7.03
2017-08-26T09:32:54.191Z,9.33
2017-08-26T09:35:51.933Z,12.40
2017-08-26T09:38:50.595Z,7.73
2017-08-26T09:41:50.181Z,6.67
2017-08-26T09:44:52.939Z,6.60
2017-08-26T09:47:50.584Z,10.63
2017-08-26T09:50:49.211Z,13.20
2017-08-26T09:53:47.815Z,8.83
2017-08-26T09:56:46.636Z,34.67
2017-08-26T09:59:44.266Z,11.77
2017-08-26T10:02:43.726Z,6.30
2017-08-26T10:05:41.287Z,9.97
2017-08-26T10:08:41.976Z,8.07
2017-08-26T10:11:41.640Z,15.07
2017-08-26T10:14:41.389Z,10.37
2017-08-26T10:17:40.260Z,6.00
2017-08-26T10:20:43.991Z,9.93
2017-08-26T10:23:41.416Z,9.73
2017-08-26T10:26:51.045Z,8.03
2017-08-26T10:29:51.819Z,8.00
2017-08-26T10:33:05.487Z,9.97
2017-08-26T10:36:02.966Z,7.67
2017-08-26T10:39:01.719Z,9.50
2017-08-26T10:42:00.256Z,7.60
2017-08-26T10:44:57.866Z,12.73
2017-08-26T10:47:55.363Z,8.63
2017-08-26T10:50:53.070Z,9.47
2017-08-26T10:53:50.772Z,8.80
2017-08-26T10:56:48.497Z,13.03
2017-08-26T10:59:46.423Z,6.30
2017-08-26T11:02:44.175Z,7.87
2017-08-26T11:05:41.722Z,6.63
2017-08-26T11:08:39.222Z,8.73
2017-08-26T11:11:37.011Z,12.30
2017-08-26T11:14:34.471Z,10.53
2017-08-26T11:17:32.100Z,9.23
2017-08-26T11:20:30.103Z,8.70
2017-08-26T11:23:28.535Z,7.67
2017-08-26T11:26:27.128Z,8.83
2017-08-26T11:29:30.861Z,7.60
2017-08-26T11:32:28.536Z,9.20
2017-08-26T11:35:26.228Z,11.87
2017-08-26T11:38:23.794Z,6.00
2017-08-26T11:41:23.319Z,8.20
2017-08-26T11:44:22.020Z,11.57
2017-08-26T11:47:20.636Z,11.83
2017-08-26T11:50:21.334Z,6.37
2017-08-26T11:53:20.037Z,9.30
2017-08-26T11:56:17.549Z,9.20
2017-08-26T11:59:21.215Z,8.53
2017-08-26T12:02:19.021Z,9.83
2017-08-26T12:05:16.443Z,10.33
2017-08-26T12:08:20.887Z,8.60
2017-08-26T12:11:18.528Z,7.80
2017-08-26T12:14:16.147Z,7.73
2017-08-26T12:17:13.734Z,8.47
2017-08-26T12:20:11.312Z,7.37
2017-08-26T12:23:09.083Z,8.53
2017-08-26T12:26:07.873Z,6.07
2017-08-26T12:29:07.392Z,7.80
2017-08-26T12:32:05.842Z,10.30
2017-08-26T12:35:03.616Z,9.13
2017-08-26T12:38:08.350Z,7.20
2017-08-26T12:41:05.878Z,6.77
2017-08-26T12:44:03.694Z,9.67
2017-08-26T12:47:01.323Z,10.03
2017-08-26T12:49:59.006Z,8.03
2017-08-26T12:53:01.763Z,9.47
2017-08-26T12:55:59.703Z,7.70
2017-08-26T12:58:59.395Z,7.97
2017-08-26T13:02:01.255Z,7.73
2017-08-26T13:05:05.079Z,8.10
2017-08-26T13:08:03.640Z,11.27
2017-08-26T13:11:01.684Z,7.30
2017-08-26T13:14:04.358Z,6.03
2017-08-26T13:17:05.109Z,6.47
2017-08-26T13:20:02.838Z,8.27
2017-08-26T13:23:00.378Z,8.73
2017-08-26T13:26:04.202Z,7.23
2017-08-26T13:29:01.715Z,8.77
2017-08-26T13:31:59.283Z,6.67
2017-08-26T13:34:57.852Z,10.03
2017-08-26T13:37:55.416Z,8.50
2017-08-26T13:40:53.073Z,7.43
2017-08-26T13:43:50.841Z,8.40
2017-08-26T13:46:48.518Z,10.47
2017-08-26T13:49:46.210Z,15.27
2017-08-26T13:52:43.650Z,6.77
2017-08-26T13:55:41.466Z,12.03
2017-08-26T13:58:39.030Z,8.73
2017-08-26T14:01:36.544Z,7.67
2017-08-26T14:04:34.257Z,7.93
2017-08-26T14:07:31.745Z,8.93
2017-08-26T14:10:30.559Z,6.53
2017-08-26T14:13:29.300Z,7.37
2017-08-26T14:16:27.046Z,7.10
2017-08-26T14:19:24.846Z,6.07
2017-08-26T14:22:22.645Z,13.30
2017-08-26T14:25:20.409Z,7.00
2017-08-26T14:28:18.046Z,7.47
2017-08-26T14:31:16.694Z,7.77
2017-08-26T14:34:15.446Z,6.23
2017-08-26T14:37:14.071Z,6.63
2017-08-26T14:40:11.674Z,7.33
2017-08-26T14:43:09.970Z,7.17
2017-08-26T14:46:07.860Z,8.10
2017-08-26T14:49:06.351Z,7.70
2017-08-26T14:52:12.011Z,7.80
2017-08-26T14:55:09.760Z,10.37
2017-08-26T14:58:08.429Z,6.23
2017-08-26T15:01:08.047Z,8.43
2017-08-26T15:04:05.971Z,8.43
2017-08-26T15:09:45.851Z,7.37
2017-08-26T15:12:43.359Z,8.00
2017-08-26T15:15:40.779Z,8.30
2017-08-26T15:18:38.520Z,8.53
2017-08-26T15:21:36.074Z,7.07
2017-08-26T15:24:33.958Z,7.33
2017-08-26T15:27:31.479Z,12.07
2017-08-26T15:30:35.141Z,7.43
2017-08-26T15:33:38.790Z,7.50
2017-08-26T15:36:37.343Z,7.97
2017-08-26T15:39:41.768Z,6.67
2017-08-26T15:42:41.751Z,7.93
2017-08-26T15:45:39.167Z,8.83
2017-08-26T15:48:36.848Z,10.10
2017-08-26T15:51:34.504Z,6.30
2017-08-26T15:54:31.930Z,5.70
2017-08-26T15:57:29.666Z,11.00
2017-08-26T16:00:27.196Z,7.30
2017-08-26T16:03:33.735Z,9.73
2017-08-26T16:06:31.276Z,7.60
2017-08-26T16:09:28.993Z,10.00
2017-08-26T16:12:26.286Z,9.10
2017-08-26T16:15:23.973Z,9.17
2017-08-26T16:18:21.605Z,6.93
2017-08-26T16:21:20.283Z,12.30
2017-08-26T16:24:17.776Z,6.70
2017-08-26T16:27:16.330Z,6.53
2017-08-26T16:30:13.896Z,12.60
2017-08-26T16:33:12.580Z,8.77
2017-08-26T16:36:10.108Z,6.63
2017-08-26T16:39:13.887Z,7.33
2017-08-26T16:42:11.540Z,8.97
2017-08-26T16:45:09.076Z,8.10
2017-08-26T16:48:06.606Z,12.40
2017-08-26T16:51:04.146Z,11.63
2017-08-26T16:54:01.774Z,9.60
2017-08-26T16:57:02.230Z,8.57
2017-08-26T17:00:02.720Z,5.87
2017-08-26T17:03:01.434Z,7.23
2017-08-26T17:06:08.209Z,6.93
2017-08-26T17:09:11.841Z,8.10
2017-08-26T17:12:10.374Z,7.00
2017-08-26T17:15:08.878Z,13.97
2017-08-26T17:18:06.213Z,7.40
2017-08-26T17:21:09.733Z,8.67
2017-08-26T17:24:07.650Z,9.23
2017-08-26T17:27:09.173Z,7.70
2017-08-26T17:30:13.005Z,7.53
2017-08-26T17:33:16.840Z,10.13
2017-08-26T17:36:16.695Z,9.07
2017-08-26T17:39:14.313Z,14.10
2017-08-26T17:42:11.917Z,12.97
2017-08-26T17:45:09.336Z,9.50
2017-08-26T17:48:07.392Z,15.63
2017-08-26T17:51:04.842Z,10.83
2017-08-26T17:54:02.638Z,12.00
2017-08-26T17:57:03.298Z,8.93
2017-08-26T18:00:00.845Z,11.47
2017-08-26T18:03:01.435Z,9.73
2017-08-26T18:06:05.018Z,8.87
2017-08-26T18:09:02.490Z,9.60
2017-08-26T18:12:00.300Z,12.70
2017-08-26T18:14:57.804Z,10.10
2017-08-26T18:17:55.351Z,9.40
2017-08-26T18:20:52.908Z,7.80
2017-08-26T18:23:50.676Z,10.80
2017-08-26T18:26:48.109Z,9.87
2017-08-26T18:29:45.623Z,8.07
2017-08-26T18:32:43.810Z,8.07
2017-08-26T18:35:41.184Z,14.93
2017-08-26T18:38:38.708Z,7.93
2017-08-26T18:41:36.334Z,13.10
2017-08-26T18:44:34.861Z,12.73
2017-08-26T18:47:38.539Z,15.13
2017-08-26T18:50:42.110Z,14.73
2017-08-26T18:53:39.590Z,12.70
2017-08-26T18:56:40.175Z,14.50
2017-08-26T18:59:38.946Z,12.20
2017-08-26T19:02:38.710Z,10.97
2017-08-26T19:05:36.461Z,17.73
2017-08-26T19:08:38.087Z,10.47
2017-08-26T19:11:35.542Z,11.83
2017-08-26T19:14:39.035Z,11.90
2017-08-26T19:17:43.025Z,11.83
2017-08-26T19:20:43.579Z,10.70
2017-08-26T19:23:41.196Z,13.97
2017-08-26T19:26:45.018Z,16.03
2017-08-26T19:29:42.698Z,16.77
2017-08-26T19:32:41.305Z,17.10
2017-08-26T19:35:40.088Z,9.87
2017-08-26T19:38:37.573Z,13.63
2017-08-26T19:41:41.155Z,13.80
2017-08-26T19:44:39.955Z,10.40
2017-08-26T19:47:42.718Z,13.10
2017-08-26T19:50:40.544Z,12.20
2017-08-26T19:53:37.928Z,12.60
2017-08-26T19:56:35.992Z,15.70
2017-08-26T19:59:34.553Z,14.97
2017-08-26T20:02:38.311Z,14.10
2017-08-26T20:05:37.703Z,13.07
2017-08-26T20:08:38.148Z,10.63
2017-08-26T20:11:42.784Z,14.07
2017-08-26T20:14:40.379Z,15.00
2017-08-26T20:17:37.996Z,12.90
2017-08-26T20:20:35.604Z,14.73
2017-08-26T20:23:33.259Z,15.33
2017-08-26T20:26:31.086Z,11.00
2017-08-26T20:29:28.778Z,16.33
2017-08-26T20:32:26.365Z,14.10
2017-08-26T20:35:23.866Z,16.80
2017-08-26T20:38:21.406Z,11.90
2017-08-26T20:41:19.095Z,13.00
2017-08-26T20:44:16.636Z,11.60
2017-08-26T20:47:14.403Z,11.73
2017-08-26T20:50:11.823Z,12.37
2017-08-26T20:53:09.274Z,12.20
2017-08-26T20:56:06.903Z,12.47
2017-08-26T20:59:04.340Z,11.30
2017-08-26T21:02:01.890Z,16.50
2017-08-26T21:05:00.387Z,12.63
2017-08-26T21:07:57.866Z,12.87
2017-08-26T21:10:55.355Z,12.70
2017-08-26T21:13:52.783Z,15.43
2017-08-26T21:16:51.360Z,15.67
2017-08-26T21:20:04.096Z,11.37
2017-08-26T21:23:12.644Z,12.23
2017-08-26T21:26:11.106Z,11.70
2017-08-26T21:29:09.675Z,15.00
2017-08-26T21:32:10.288Z,14.97
2017-08-26T21:35:13.150Z,15.50
2017-08-26T21:38:13.630Z,14.33
2017-08-26T21:41:11.288Z,12.90
2017-08-26T21:44:10.183Z,13.13
2017-08-26T21:47:14.648Z,14.90
2017-08-26T21:50:13.087Z,13.20
2017-08-26T21:53:13.654Z,14.20
2017-08-26T21:56:12.178Z,14.10
2017-08-26T21:59:25.785Z,12.57
2017-08-26T22:02:27.366Z,13.20
2017-08-26T22:05:27.815Z,13.07
2017-08-26T22:08:37.446Z,11.30
2017-08-26T22:11:48.098Z,12.57
2017-08-26T22:14:52.782Z,11.60
2017-08-26T22:17:58.406Z,14.00
2017-08-26T22:21:11.119Z,14.00
2017-08-26T22:24:09.914Z,14.17
2017-08-26T22:27:07.806Z,13.50
2017-08-26T22:30:10.651Z,15.90
2017-08-26T22:33:11.228Z,17.83
2017-08-26T22:36:14.090Z,12.87
2017-08-26T22:42:40.683Z,13.20
2017-08-26T22:45:47.674Z,12.80
2017-08-26T22:48:45.552Z,12.63
2017-08-26T22:51:49.376Z,12.67
2017-08-26T22:54:47.186Z,16.70
2017-08-26T22:57:57.786Z,14.63
2017-08-26T23:00:55.186Z,13.20
2017-08-26T23:03:55.882Z,12.17
2017-08-26T23:07:00.607Z,13.10
2017-08-26T23:10:04.487Z,13.10
2017-08-26T23:13:08.156Z,12.40
2017-08-26T23:16:18.752Z,12.03
2017-08-26T23:19:16.438Z,14.20
2017-08-26T23:22:14.075Z,12.70
2017-08-26T23:25:32.762Z,12.80
2017-08-26T23:28:31.335Z,12.07
2017-08-26T23:31:29.926Z,15.70
2017-08-26T23:34:34.482Z,15.27
2017-08-26T23:37:33.199Z,13.67
2017-08-26T23:43:51.304Z,12.40
2017-08-26T23:46:49.928Z,14.57
2017-08-26T23:53:20.628Z,13.10
2017-08-26T23:56:18.446Z,12.73
2017-08-26T23:59:30.273Z,13.87
